createdAt,value
2019-04-03T00:00:04.085Z,5.5
2019-04-03T00:00:30.086Z,5.5
2019-04-03T00:00:56.090Z,5.5
2019-04-03T00:01:22.078Z,5.5
2019-04-03T00:01:48.106Z,5.5
2019-04-03T00:02:14.168Z,5.5
2019-04-03T00:02:40.083Z,5.5
2019-04-03T00:03:06.086Z,5.5
2019-04-03T07:35:22.178Z,0
2019-04-03T07:35:48.537Z,11.7
2019-04-03T07:36:14.478Z,11.7
2019-04-03T07:36:40.801Z,11.7
2019-04-03T07:37:06.040Z,11.7
2019-04-03T07:37:32.626Z,11.7
2019-04-03T07:37:58.276Z,11.7
2019-04-03T07:38:24.499Z,11.7
2019-04-03T07:38:50.237Z,11.7
2019-04-03T07:39:16.412Z,11.7
2019-04-03T07:39:42.883Z,11.7
2019-04-03T07:40:08.679Z,11.7
2019-04-03T07:40:34.440Z,11.7
2019-04-03T07:41:00.681Z,11.7
2019-04-03T07:41:26.336Z,11.7
2019-04-03T07:41:52.377Z,11.7
2019-04-03T07:42:18.461Z,11.7
2019-04-03T07:42:44.201Z,11.7
2019-04-03T07:43:10.244Z,11.7
2019-04-03T07:43:36.343Z,11.7
2019-04-03T07:44:02.339Z,11.7
2019-04-03T07:44:28.140Z,11.7
2019-04-03T07:44:54.441Z,11.7
2019-04-03T07:45:20.398Z,11.7
2019-04-03T07:45:46.381Z,11.7
2019-04-03T07:57:54.515Z,11.7
2019-04-03T07:58:20.418Z,11.7
2019-04-03T07:58:46.120Z,11.7
2019-04-03T07:59:12.139Z,11.7
2019-04-03T07:59:38.740Z,11.7
2019-04-03T08:00:04.260Z,11.7
2019-04-03T08:00:30.577Z,11.7
2019-04-03T08:00:56.298Z,11.7
2019-04-03T08:01:22.376Z,11.7
2019-04-03T08:01:48.659Z,11.7
2019-04-03T08:02:14.598Z,11.7
2019-04-03T08:02:40.522Z,11.7
2019-04-03T08:03:06.281Z,11.7
2019-04-03T08:03:32.459Z,11.7
2019-04-03T08:03:58.139Z,11.7
2019-04-03T08:04:24.341Z,11.7
2019-04-03T08:04:50.157Z,11.7
2019-04-03T08:05:16.378Z,11.7
2019-04-03T08:05:42.183Z,12.1
2019-04-03T08:06:08.181Z,12.1
2019-04-03T08:06:34.898Z,12.1
2019-04-03T08:07:00.397Z,12.1
2019-04-03T08:07:26.439Z,12.1
2019-04-03T08:07:52.179Z,12.1
2019-04-03T08:08:18.295Z,12.1
2019-04-03T08:08:44.538Z,12.1
2019-04-03T08:09:10.140Z,12.1
2019-04-03T08:09:36.157Z,12.1
2019-04-03T08:10:02.162Z,12.1
2019-04-03T08:10:28.617Z,12.1
2019-04-03T08:10:54.302Z,12.1
2019-04-03T08:11:20.424Z,12.1
2019-04-03T08:11:46.321Z,12.1
2019-04-03T08:12:12.437Z,12.1
2019-04-03T08:12:38.439Z,12.1
2019-04-03T08:13:04.219Z,12.1
2019-04-03T08:13:30.698Z,12.1
2019-04-03T08:13:56.161Z,12.1
2019-04-03T08:14:22.180Z,12.1
2019-04-03T08:14:48.475Z,12.1
2019-04-03T08:15:14.476Z,12.1
2019-04-03T08:15:40.378Z,12.1
2019-04-03T08:16:06.245Z,12.1
2019-04-03T08:16:32.396Z,12.1
2019-04-03T08:16:58.618Z,12.1
2019-04-03T08:17:24.558Z,12.1
2019-04-03T08:17:50.259Z,12.1
2019-04-03T08:18:16.677Z,12.1
2019-04-03T08:18:42.281Z,12.1
2019-04-03T08:19:08.618Z,12.1
2019-04-03T08:19:34.500Z,12.1
2019-04-03T08:20:00.205Z,12.1
2019-04-03T08:20:26.696Z,12.1
2019-04-03T08:20:52.275Z,12.1
2019-04-03T08:21:18.339Z,12.1
2019-04-03T08:21:44.753Z,12.1
2019-04-03T08:22:10.456Z,12.1
2019-04-03T08:22:36.459Z,12.1
2019-04-03T08:23:02.259Z,12.1
2019-04-03T08:23:28.358Z,12.1
2019-04-03T08:23:54.578Z,12.1
2019-04-03T08:24:20.583Z,12.1
2019-04-03T08:24:46.299Z,12.1
2019-04-03T08:25:12.517Z,12.1
2019-04-03T08:25:38.857Z,12.1
2019-04-03T08:26:04.801Z,12.1
2019-04-03T08:26:30.517Z,12.1
2019-04-03T08:26:56.657Z,12.1
2019-04-03T08:27:22.537Z,12.1
2019-04-03T08:27:48.658Z,12.1
2019-04-03T08:28:14.561Z,12.1
2019-04-03T08:28:44.058Z,12.1
2019-04-03T08:29:06.040Z,12.1
2019-04-03T08:29:32.522Z,12.1
2019-04-03T08:29:58.497Z,12.1
2019-04-03T08:30:24.519Z,12.1
2019-04-03T08:30:50.419Z,12.1
2019-04-03T08:31:16.898Z,12.1
2019-04-03T08:31:42.478Z,12.1
2019-04-03T08:32:08.498Z,12.1
2019-04-03T08:32:34.259Z,12.1
2019-04-03T08:33:00.516Z,12.1
2019-04-03T08:33:26.580Z,12.1
2019-04-03T08:33:52.203Z,12.1
2019-04-03T08:34:18.399Z,12.1
2019-04-03T08:34:44.363Z,12.1
2019-04-03T08:35:10.520Z,12.1
2019-04-03T08:35:36.439Z,16.9
2019-04-03T08:36:03.199Z,16.9
2019-04-03T08:36:30.030Z,16.9
2019-04-03T08:36:55.478Z,16.9
2019-04-03T08:37:21.399Z,16.9
2019-04-03T08:37:47.179Z,16.9
2019-04-03T08:38:13.298Z,16.9
2019-04-03T08:38:39.418Z,16.9
2019-04-03T08:39:05.198Z,16.9
2019-04-03T08:39:31.577Z,16.9
2019-04-03T08:39:57.421Z,16.9
2019-04-03T08:40:23.659Z,16.9
2019-04-03T08:40:49.558Z,16.9
2019-04-03T08:41:15.458Z,16.9
2019-04-03T08:41:41.678Z,16.9
2019-04-03T08:42:07.645Z,16.9
2019-04-03T08:42:33.699Z,16.9
2019-04-03T08:42:59.220Z,16.9
2019-04-03T08:43:25.241Z,16.9
2019-04-03T08:43:51.540Z,16.9
2019-04-03T08:44:17.438Z,16.9
2019-04-03T08:44:43.537Z,16.9
2019-04-03T08:45:09.502Z,16.9
2019-04-03T08:45:35.520Z,16.9
2019-04-03T08:46:01.600Z,16.9
2019-04-03T08:46:27.486Z,16.9
2019-04-03T08:46:53.298Z,16.9
2019-04-03T08:47:19.498Z,16.9
2019-04-03T08:47:45.759Z,16.9
2019-04-03T08:48:11.437Z,16.9
2019-04-03T08:48:37.438Z,16.9
2019-04-03T08:49:03.937Z,16.9
2019-04-03T08:49:29.457Z,16.9
2019-04-03T08:49:55.389Z,16.9
2019-04-03T08:50:21.660Z,16.9
2019-04-03T08:50:47.399Z,16.9
2019-04-03T08:51:13.699Z,16.9
2019-04-03T08:51:39.479Z,16.9
2019-04-03T08:52:05.221Z,16.9
2019-04-03T08:52:31.238Z,16.9
2019-04-03T08:52:57.342Z,16.9
2019-04-03T08:53:23.399Z,16.9
2019-04-03T08:53:49.260Z,16.9
2019-04-03T08:54:15.501Z,16.9
2019-04-03T08:54:41.378Z,16.9
2019-04-03T08:55:07.498Z,16.9
2019-04-03T08:55:33.519Z,16.9
2019-04-03T08:55:59.477Z,16.9
2019-04-03T08:56:25.499Z,16.9
2019-04-03T08:56:51.758Z,16.9
2019-04-03T08:57:17.219Z,16.9
2019-04-03T08:57:43.243Z,16.9
2019-04-03T08:58:09.938Z,16.9
2019-04-03T08:58:35.418Z,16.9
2019-04-03T08:59:01.560Z,16.9
2019-04-03T08:59:27.680Z,16.9
2019-04-03T08:59:53.722Z,16.9
2019-04-03T09:00:19.597Z,16.9
2019-04-03T09:00:45.698Z,16.9
2019-04-03T09:01:17.261Z,16.9
2019-04-03T09:01:37.542Z,16.9
2019-04-03T09:02:04.019Z,16.9
2019-04-03T09:02:29.298Z,16.9
2019-04-03T09:02:55.323Z,16.9
2019-04-03T09:03:21.277Z,16.9
2019-04-03T09:03:47.262Z,16.9
2019-04-03T09:04:13.260Z,16.9
2019-04-03T09:04:39.478Z,16.9
2019-04-03T09:05:05.478Z,16.9
2019-04-03T09:05:31.477Z,16.9
2019-04-03T09:05:57.421Z,16.9
2019-04-03T09:06:23.818Z,16.9
2019-04-03T09:06:49.577Z,16.9
2019-04-03T09:07:15.242Z,16.9
2019-04-03T09:07:41.238Z,16.9
2019-04-03T09:08:07.539Z,16.9
2019-04-03T09:08:33.518Z,16.9
2019-04-03T09:08:59.281Z,16.9
2019-04-03T09:09:25.540Z,16.9
2019-04-03T09:09:51.498Z,16.9
2019-04-03T09:10:17.516Z,16.9
2019-04-03T09:10:43.578Z,16.9
2019-04-03T09:11:09.421Z,16.9
2019-04-03T09:11:35.239Z,16.9
2019-04-03T09:12:01.140Z,16.9
2019-04-03T09:12:27.240Z,16.9
2019-04-03T09:12:53.259Z,16.9
2019-04-03T09:13:19.262Z,16.9
2019-04-03T09:13:45.981Z,16.9
2019-04-03T09:14:11.279Z,16.9
2019-04-03T09:14:37.800Z,16.9
2019-04-03T09:15:03.952Z,16.9
2019-04-03T09:15:29.759Z,16.9
2019-04-03T09:15:57.078Z,16.9
2019-04-03T09:16:21.358Z,16.9
2019-04-03T09:16:47.238Z,16.9
2019-04-03T09:17:13.244Z,16.9
2019-04-03T09:17:39.257Z,16.9
2019-04-03T09:18:05.259Z,16.9
2019-04-03T09:18:31.578Z,16.9
2019-04-03T09:18:57.597Z,16.9
2019-04-03T09:19:23.299Z,16.9
2019-04-03T09:19:49.617Z,16.9
2019-04-03T09:20:15.498Z,16.9
2019-04-03T09:20:41.319Z,16.9
2019-04-03T09:21:07.339Z,16.9
2019-04-03T09:21:33.362Z,16.9
2019-04-03T09:21:59.639Z,16.9
2019-04-03T09:22:25.259Z,16.9
2019-04-03T09:22:51.279Z,16.9
2019-04-03T09:23:17.579Z,16.9
2019-04-03T09:23:43.518Z,16.9
2019-04-03T09:24:09.597Z,16.9
2019-04-03T09:24:35.496Z,16.9
2019-04-03T09:25:02.876Z,16.9
2019-04-03T09:25:27.801Z,16.9
2019-04-03T09:25:53.797Z,16.9
2019-04-03T09:26:19.839Z,16.9
2019-04-03T09:26:45.480Z,16.9
2019-04-03T09:27:11.262Z,16.9
2019-04-03T09:27:37.278Z,16.9
2019-04-03T09:28:03.257Z,16.9
2019-04-03T09:28:29.718Z,16.9
2019-04-03T09:28:55.579Z,16.9
2019-04-03T09:29:21.737Z,16.9
2019-04-03T09:29:47.518Z,16.9
2019-04-03T09:30:13.383Z,16.9
2019-04-03T09:30:39.560Z,16.9
2019-04-03T09:31:05.639Z,16.9
2019-04-03T09:31:31.857Z,16.9
2019-04-03T09:31:57.339Z,16.9
2019-04-03T09:32:23.322Z,16.9
2019-04-03T09:32:49.378Z,16.9
2019-04-03T09:33:15.300Z,16.9
2019-04-03T09:33:41.478Z,16.9
2019-04-03T09:34:07.599Z,16.9
2019-04-03T09:34:33.919Z,16.9
2019-04-03T09:34:59.757Z,16.9
2019-04-03T09:35:25.519Z,15.8
2019-04-03T09:35:51.618Z,15.8
2019-04-03T09:36:17.618Z,15.8
2019-04-03T09:36:43.879Z,15.8
2019-04-03T09:37:09.540Z,15.8
2019-04-03T09:37:35.260Z,15.8
2019-04-03T09:38:01.335Z,15.8
2019-04-03T09:38:27.619Z,15.8
2019-04-03T09:38:53.517Z,15.8
2019-04-03T09:39:19.619Z,15.8
2019-04-03T09:39:45.880Z,15.8
2019-04-03T09:40:11.540Z,15.8
2019-04-03T09:40:37.580Z,15.8
2019-04-03T09:41:03.580Z,15.8
2019-04-03T09:41:29.578Z,15.8
2019-04-03T09:41:55.580Z,15.8
2019-04-03T09:42:21.642Z,15.8
2019-04-03T09:42:47.578Z,15.8
2019-04-03T09:43:13.319Z,15.8
2019-04-03T09:43:39.524Z,15.8
2019-04-03T09:44:05.658Z,15.8
2019-04-03T09:44:31.440Z,15.8
2019-04-03T09:44:57.663Z,15.8
2019-04-03T09:45:23.763Z,15.8
2019-04-03T09:45:49.599Z,15.8
2019-04-03T09:46:15.658Z,15.8
2019-04-03T09:46:41.581Z,15.8
2019-04-03T09:47:07.679Z,15.8
2019-04-03T09:47:33.399Z,15.8
2019-04-03T09:47:59.318Z,15.8
2019-04-03T09:48:25.643Z,15.8
2019-04-03T09:48:51.656Z,15.8
2019-04-03T09:49:17.678Z,15.8
2019-04-03T09:49:43.680Z,15.8
2019-04-03T09:50:09.874Z,15.8
2019-04-03T09:50:35.380Z,15.8
2019-04-03T09:51:01.680Z,15.8
2019-04-03T09:51:27.461Z,15.8
2019-04-03T09:51:53.717Z,15.8
2019-04-03T09:52:19.737Z,15.8
2019-04-03T09:52:45.699Z,15.8
2019-04-03T09:53:11.348Z,15.8
2019-04-03T09:53:37.599Z,15.8
2019-04-03T09:54:03.668Z,15.8
2019-04-03T09:54:29.557Z,15.8
2019-04-03T09:54:55.538Z,15.8
2019-04-03T09:55:22.222Z,15.8
2019-04-03T09:55:47.677Z,15.8
2019-04-03T09:56:13.778Z,15.8
2019-04-03T09:56:39.701Z,15.8
2019-04-03T09:57:05.302Z,15.8
2019-04-03T09:57:31.720Z,15.8
2019-04-03T09:57:57.746Z,15.8
2019-04-03T09:58:23.361Z,15.8
2019-04-03T09:58:49.639Z,15.8
2019-04-03T09:59:15.557Z,15.8
2019-04-03T09:59:41.665Z,15.8
2019-04-03T10:00:07.697Z,15.8
2019-04-03T10:00:33.656Z,15.8
2019-04-03T10:00:59.578Z,15.8
2019-04-03T10:01:25.401Z,15.8
2019-04-03T10:01:51.442Z,15.8
2019-04-03T10:02:17.329Z,15.8
2019-04-03T10:02:43.361Z,15.8
2019-04-03T10:03:09.562Z,15.8
2019-04-03T10:03:35.989Z,15.8
2019-04-03T10:04:01.758Z,15.8
2019-04-03T10:04:27.778Z,15.8
2019-04-03T10:04:53.620Z,15.8
2019-04-03T10:05:19.618Z,16.3
2019-04-03T10:05:45.400Z,16.3
2019-04-03T10:06:11.698Z,16.3
2019-04-03T10:06:37.898Z,16.3
2019-04-03T10:07:03.578Z,16.3
2019-04-03T10:07:29.341Z,16.3
2019-04-03T10:07:55.659Z,16.3
2019-04-03T10:08:21.679Z,16.3
2019-04-03T10:08:47.559Z,16.3
2019-04-03T10:09:13.481Z,16.3
2019-04-03T10:09:39.699Z,16.3
2019-04-03T10:10:05.576Z,16.3
2019-04-03T10:10:31.843Z,16.3
2019-04-03T10:10:57.598Z,16.3
2019-04-03T10:11:23.623Z,16.3
2019-04-03T10:11:49.656Z,16.3
2019-04-03T10:12:15.937Z,16.3
2019-04-03T10:12:41.862Z,16.3
2019-04-03T10:13:07.637Z,16.3
2019-04-03T10:13:33.576Z,16.3
2019-04-03T10:13:59.597Z,16.3
2019-04-03T10:14:25.600Z,16.3
2019-04-03T10:14:51.499Z,16.3
2019-04-03T10:15:17.558Z,16.3
2019-04-03T10:15:43.698Z,16.3
2019-04-03T10:16:09.718Z,16.3
2019-04-03T10:16:35.981Z,16.3
2019-04-03T10:17:01.877Z,16.3
2019-04-03T10:17:27.341Z,16.3
2019-04-03T10:17:53.362Z,16.3
2019-04-03T10:18:19.561Z,16.3
2019-04-03T10:18:45.658Z,16.3
2019-04-03T10:19:11.676Z,16.3
2019-04-03T10:19:37.403Z,16.3
2019-04-03T10:20:03.817Z,16.3
2019-04-03T10:20:29.617Z,16.3
2019-04-03T10:20:55.661Z,16.3
2019-04-03T10:21:21.340Z,16.3
2019-04-03T10:21:47.341Z,16.3
2019-04-03T10:22:13.359Z,16.3
2019-04-03T10:22:39.765Z,16.3
2019-04-03T10:23:05.381Z,16.3
2019-04-03T10:23:31.718Z,16.3
2019-04-03T10:23:57.618Z,16.3
2019-04-03T10:24:23.676Z,16.3
2019-04-03T10:24:49.536Z,16.3
2019-04-03T10:25:15.422Z,16.3
2019-04-03T10:25:41.738Z,16.3
2019-04-03T10:26:07.639Z,16.3
2019-04-03T10:26:33.338Z,16.3
2019-04-03T10:26:59.521Z,16.3
2019-04-03T10:27:25.421Z,16.3
2019-04-03T10:27:51.621Z,16.3
2019-04-03T10:28:17.578Z,16.3
2019-04-03T10:28:43.579Z,16.3
2019-04-03T10:29:09.779Z,16.3
2019-04-03T10:29:35.817Z,16.3
2019-04-03T10:30:01.640Z,16.3
2019-04-03T10:30:27.619Z,16.3
2019-04-03T10:30:53.918Z,16.3
2019-04-03T10:31:19.900Z,16.3
2019-04-03T10:31:45.463Z,16.3
2019-04-03T10:32:11.501Z,16.3
2019-04-03T10:32:37.878Z,16.3
2019-04-03T10:33:03.357Z,16.3
2019-04-03T10:33:29.478Z,16.3
2019-04-03T10:33:55.698Z,16.3
2019-04-03T10:34:21.639Z,16.3
2019-04-03T10:34:47.617Z,16.3
2019-04-03T10:35:13.757Z,10.2
2019-04-03T10:35:39.697Z,10.2
2019-04-03T10:36:05.637Z,10.2
2019-04-03T10:36:31.736Z,10.2
2019-04-03T10:36:57.500Z,10.2
2019-04-03T10:37:23.446Z,10.2
2019-04-03T10:37:49.358Z,10.2
2019-04-03T10:38:15.597Z,10.2
2019-04-03T10:38:42.143Z,10.2
2019-04-03T10:39:07.806Z,10.2
2019-04-03T10:39:34.441Z,10.2
2019-04-03T10:39:59.758Z,10.2
2019-04-03T10:40:25.698Z,10.2
2019-04-03T10:40:51.676Z,10.2
2019-04-03T10:41:17.838Z,10.2
2019-04-03T10:41:43.381Z,10.2
2019-04-03T10:42:09.382Z,10.2
2019-04-03T10:42:35.796Z,10.2
2019-04-03T10:43:01.381Z,10.2
2019-04-03T10:43:27.677Z,10.2
2019-04-03T10:43:53.779Z,10.2
2019-04-03T10:44:19.601Z,10.2
2019-04-03T10:44:45.577Z,10.2
2019-04-03T10:45:11.505Z,10.2
2019-04-03T10:45:37.587Z,10.2
2019-04-03T10:46:03.659Z,10.2
2019-04-03T10:46:29.742Z,10.2
2019-04-03T10:46:55.604Z,10.2
2019-04-03T10:47:21.500Z,10.2
2019-04-03T10:47:47.896Z,10.2
2019-04-03T10:48:13.607Z,10.2
2019-04-03T10:48:39.460Z,10.2
2019-04-03T10:49:05.525Z,10.2
2019-04-03T10:49:31.619Z,10.2
2019-04-03T10:49:58.280Z,10.2
2019-04-03T10:50:23.957Z,10.2
2019-04-03T10:50:49.545Z,10.2
2019-04-03T10:51:15.697Z,10.2
2019-04-03T10:51:41.439Z,10.2
2019-04-03T10:52:07.643Z,10.2
2019-04-03T10:52:33.541Z,10.2
2019-04-03T10:52:59.404Z,10.2
2019-04-03T10:53:25.562Z,10.2
2019-04-03T10:53:51.562Z,10.2
2019-04-03T10:54:17.555Z,10.2
2019-04-03T10:54:43.799Z,10.2
2019-04-03T10:55:09.959Z,10.2
2019-04-03T10:55:35.856Z,10.2
2019-04-03T10:56:01.757Z,10.2
2019-04-03T10:56:27.683Z,10.2
2019-04-03T10:56:53.519Z,10.2
2019-04-03T10:57:19.403Z,10.2
2019-04-03T10:57:45.448Z,10.2
2019-04-03T10:58:11.420Z,10.2
2019-04-03T10:58:38.579Z,10.2
2019-04-03T10:59:03.657Z,10.2
2019-04-03T10:59:29.742Z,10.2
2019-04-03T10:59:55.698Z,10.2
2019-04-03T11:00:22.076Z,10.2
2019-04-03T11:00:47.777Z,10.2
2019-04-03T11:01:14.381Z,10.2
2019-04-03T11:01:39.400Z,10.2
2019-04-03T11:02:05.545Z,10.2
2019-04-03T11:02:33.371Z,10.2
2019-04-03T11:02:57.440Z,10.2
2019-04-03T11:03:23.440Z,10.2
2019-04-03T11:03:49.838Z,10.2
2019-04-03T11:04:15.698Z,10.2
2019-04-03T11:04:41.621Z,10.2
2019-04-03T11:05:07.959Z,10.2
2019-04-03T11:05:34.179Z,15.6
2019-04-03T11:05:59.722Z,15.6
2019-04-03T11:06:25.842Z,15.6
2019-04-03T11:06:51.819Z,15.6
2019-04-03T11:07:17.421Z,15.6
2019-04-03T11:07:43.444Z,15.6
2019-04-03T11:08:09.540Z,15.6
2019-04-03T11:08:35.678Z,15.6
2019-04-03T11:09:01.466Z,15.6
2019-04-03T11:09:27.778Z,15.6
2019-04-03T11:09:53.839Z,15.6
2019-04-03T11:10:22.219Z,15.6
2019-04-03T11:10:45.820Z,15.6
2019-04-03T11:11:11.401Z,15.6
2019-04-03T11:11:37.421Z,15.6
2019-04-03T11:12:03.453Z,15.6
2019-04-03T11:12:29.859Z,15.6
2019-04-03T11:12:55.880Z,15.6
2019-04-03T11:13:21.702Z,15.6
2019-04-03T11:13:47.719Z,15.6
2019-04-03T11:14:13.825Z,15.6
2019-04-03T11:14:40.039Z,15.6
2019-04-03T11:15:05.778Z,15.6
2019-04-03T11:15:31.697Z,15.6
2019-04-03T11:15:57.818Z,15.6
2019-04-03T11:16:23.564Z,15.6
2019-04-03T11:16:49.620Z,15.6
2019-04-03T11:17:15.539Z,15.6
2019-04-03T11:17:41.859Z,15.6
2019-04-03T11:18:07.979Z,15.6
2019-04-03T11:18:34.218Z,15.6
2019-04-03T11:18:59.700Z,15.6
2019-04-03T11:19:26.134Z,15.6
2019-04-03T11:19:51.680Z,15.6
2019-04-03T11:20:17.816Z,15.6
2019-04-03T11:20:43.700Z,15.6
2019-04-03T11:21:09.866Z,15.6
2019-04-03T11:21:35.424Z,15.6
2019-04-03T11:22:01.819Z,15.6
2019-04-03T11:22:27.738Z,15.6
2019-04-03T11:22:53.460Z,15.6
2019-04-03T11:23:19.804Z,15.6
2019-04-03T11:23:45.878Z,15.6
2019-04-03T11:24:11.679Z,15.6
2019-04-03T11:24:37.699Z,15.6
2019-04-03T11:25:03.897Z,15.6
2019-04-03T11:25:29.697Z,15.6
2019-04-03T11:25:55.520Z,15.6
2019-04-03T11:26:21.421Z,15.6
2019-04-03T11:26:47.645Z,15.6
2019-04-03T11:27:13.462Z,15.6
2019-04-03T11:27:39.739Z,15.6
2019-04-03T11:28:05.461Z,15.6
2019-04-03T11:28:31.601Z,15.6
2019-04-03T11:28:57.901Z,15.6
2019-04-03T11:29:23.836Z,15.6
2019-04-03T11:29:49.800Z,15.6
2019-04-03T11:30:15.818Z,15.6
2019-04-03T11:30:41.962Z,15.6
